sensor_id;sensor_type;location;lat;lon;timestamp;temperature;humidity
13091;DHT22;6611;52.604;13.438;2022-11-23T00:04:00;1.87;91.25
13091;DHT22;6611;52.604;13.438;2022-11-23T00:09:03;1.82;91.29
13091;DHT22;6611;52.604;13.438;2022-11-23T00:14:04;1.76;91.57
13091;DHT22;6611;52.604;13.438;2022-11-23T00:19:08;1.79;91.43
13091;DHT22;6611;52.604;13.438;2022-11-23T00:24:10;1.84;91.04
13091;DHT22;6611;52.604;13.438;2022-11-23T00:29:12;1.73;91.65
13091;DHT22;6611;52.604;13.438;2022-11-23T00:34:16;1.63;91.98
13091;DHT22;6611;52.604;13.438;2022-11-23T00:39:18;1.75;91.76
13091;DHT22;6611;52.604;13.438;2022-11-23T00:44:19;1.72;91.53
13091;DHT22;6611;52.604;13.438;2022-11-23T00:49:22;1.67;91.56
13091;DHT22;6611;52.604;13.438;2022-11-23T00:54:24;1.79;90.94
13091;DHT22;6611;52.604;13.438;2022-11-23T00:59:26;1.66;91.31
13091;DHT22;6611;52.604;13.438;2022-11-23T01:04:30;1.72;91.16
13091;DHT22;6611;52.604;13.438;2022-11-23T01:09:31;1.80;91.07
13091;DHT22;6611;52.604;13.438;2022-11-23T01:14:33;1.77;91.40
13091;DHT22;6611;52.604;13.438;2022-11-23T01:19:36;1.83;91.18
13091;DHT22;6611;52.604;13.438;2022-11-23T01:24:38;1.84;90.99
13091;DHT22;6611;52.604;13.438;2022-11-23T01:29:39;1.84;91.19
13091;DHT22;6611;52.604;13.438;2022-11-23T01:34:42;1.79;91.53
13091;DHT22;6611;52.604;13.438;2022-11-23T01:39:44;1.93;91.09
13091;DHT22;6611;52.604;13.438;2022-11-23T01:44:47;1.92;91.18
13091;DHT22;6611;52.604;13.438;2022-11-23T01:49:51;1.87;91.52
13091;DHT22;6611;52.604;13.438;2022-11-23T01:54:54;1.90;91.71
13091;DHT22;6611;52.604;13.438;2022-11-23T01:59:57;1.87;91.87
13091;DHT22;6611;52.604;13.438;2022-11-23T02:05:01;2.00;91.65
13091;DHT22;6611;52.604;13.438;2022-11-23T02:10:03;2.06;91.45
13091;DHT22;6611;52.604;13.438;2022-11-23T02:15:06;2.18;91.12
13091;DHT22;6611;52.604;13.438;2022-11-23T02:20:11;2.15;90.99
13091;DHT22;6611;52.604;13.438;2022-11-23T02:25:21;2.21;90.63
13091;DHT22;6611;52.604;13.438;2022-11-23T02:30:26;2.15;91.14
13091;DHT22;6611;52.604;13.438;2022-11-23T02:35:29;2.25;91.07
13091;DHT22;6611;52.604;13.438;2022-11-23T02:40:32;2.21;91.13
13091;DHT22;6611;52.604;13.438;2022-11-23T02:45:40;2.15;91.09
13091;DHT22;6611;52.604;13.438;2022-11-23T02:50:44;2.27;90.72
13091;DHT22;6611;52.604;13.438;2022-11-23T02:55:46;2.29;90.39
13091;DHT22;6611;52.604;13.438;2022-11-23T03:00:49;2.17;90.91
13091;DHT22;6611;52.604;13.438;2022-11-23T03:05:51;2.15;90.95
13091;DHT22;6611;52.604;13.438;2022-11-23T03:10:52;2.10;91.08
13091;DHT22;6611;52.604;13.438;2022-11-23T03:15:55;2.17;90.80
13091;DHT22;6611;52.604;13.438;2022-11-23T03:21:00;2.21;90.63
13091;DHT22;6611;52.604;13.438;2022-11-23T03:26:03;2.14;90.52
13091;DHT22;6611;52.604;13.438;2022-11-23T03:31:06;2.22;89.90
13091;DHT22;6611;52.604;13.438;2022-11-23T03:36:08;2.13;90.09
13091;DHT22;6611;52.604;13.438;2022-11-23T03:41:10;1.97;90.72
13091;DHT22;6611;52.604;13.438;2022-11-23T03:46:13;1.86;91.15
13091;DHT22;6611;52.604;13.438;2022-11-23T03:51:14;1.73;91.39
13091;DHT22;6611;52.604;13.438;2022-11-23T03:56:16;1.87;90.88
13091;DHT22;6611;52.604;13.438;2022-11-23T04:01:19;1.89;90.57
13091;DHT22;6611;52.604;13.438;2022-11-23T04:06:21;1.83;90.69
13091;DHT22;6611;52.604;13.438;2022-11-23T04:11:23;1.86;90.64
13091;DHT22;6611;52.604;13.438;2022-11-23T04:16:26;1.79;90.61
13091;DHT22;6611;52.604;13.438;2022-11-23T04:21:27;1.76;90.63
13091;DHT22;6611;52.604;13.438;2022-11-23T04:26:29;1.69;90.67
13091;DHT22;6611;52.604;13.438;2022-11-23T04:31:32;1.69;90.70
13091;DHT22;6611;52.604;13.438;2022-11-23T04:36:34;1.65;91.15
13091;DHT22;6611;52.604;13.438;2022-11-23T04:41:35;1.77;90.73
13091;DHT22;6611;52.604;13.438;2022-11-23T04:46:38;1.63;91.07
13091;DHT22;6611;52.604;13.438;2022-11-23T04:51:40;1.54;91.52
13091;DHT22;6611;52.604;13.438;2022-11-23T04:56:42;1.62;91.11
13091;DHT22;6611;52.604;13.438;2022-11-23T05:01:45;1.65;90.45
13091;DHT22;6611;52.604;13.438;2022-11-23T05:06:46;1.60;90.50
13091;DHT22;6611;52.604;13.438;2022-11-23T05:11:48;1.60;90.16
13091;DHT22;6611;52.604;13.438;2022-11-23T05:16:51;1.44;91.38
13091;DHT22;6611;52.604;13.438;2022-11-23T05:21:53;1.56;91.15
13091;DHT22;6611;52.604;13.438;2022-11-23T05:26:54;1.73;90.52
13091;DHT22;6611;52.604;13.438;2022-11-23T05:31:57;1.70;90.67
13091;DHT22;6611;52.604;13.438;2022-11-23T05:36:59;1.79;90.48
13091;DHT22;6611;52.604;13.438;2022-11-23T05:42:00;1.69;90.99
13091;DHT22;6611;52.604;13.438;2022-11-23T05:47:04;1.72;91.14
13091;DHT22;6611;52.604;13.438;2022-11-23T05:52:05;1.79;91.20
13091;DHT22;6611;52.604;13.438;2022-11-23T05:57:07;1.83;90.98
13091;DHT22;6611;52.604;13.438;2022-11-23T06:02:10;1.89;90.82
13091;DHT22;6611;52.604;13.438;2022-11-23T06:07:12;1.92;90.87
13091;DHT22;6611;52.604;13.438;2022-11-23T06:12:13;1.93;90.45
13091;DHT22;6611;52.604;13.438;2022-11-23T06:17:16;1.94;90.77
13091;DHT22;6611;52.604;13.438;2022-11-23T06:22:18;1.96;90.35
13091;DHT22;6611;52.604;13.438;2022-11-23T06:27:20;1.80;90.72
13091;DHT22;6611;52.604;13.438;2022-11-23T06:32:23;1.82;91.02
13091;DHT22;6611;52.604;13.438;2022-11-23T06:37:24;1.80;90.46
13091;DHT22;6611;52.604;13.438;2022-11-23T06:42:26;1.66;90.69
13091;DHT22;6611;52.604;13.438;2022-11-23T06:47:29;1.70;90.51
13091;DHT22;6611;52.604;13.438;2022-11-23T06:52:31;1.65;90.47
13091;DHT22;6611;52.604;13.438;2022-11-23T06:57:33;1.55;89.89
13091;DHT22;6611;52.604;13.438;2022-11-23T07:02:36;1.35;90.20
13091;DHT22;6611;52.604;13.438;2022-11-23T07:07:37;1.24;90.62
13091;DHT22;6611;52.604;13.438;2022-11-23T07:12:39;1.26;90.91
13091;DHT22;6611;52.604;13.438;2022-11-23T07:17:42;1.20;90.80
13091;DHT22;6611;52.604;13.438;2022-11-23T07:22:44;1.13;90.98
13091;DHT22;6611;52.604;13.438;2022-11-23T07:27:46;1.16;91.09
13091;DHT22;6611;52.604;13.438;2022-11-23T07:32:49;1.32;90.68
13091;DHT22;6611;52.604;13.438;2022-11-23T07:37:51;1.41;90.73
13091;DHT22;6611;52.604;13.438;2022-11-23T07:42:52;1.39;90.52
13091;DHT22;6611;52.604;13.438;2022-11-23T07:48:01;1.28;90.83
13091;DHT22;6611;52.604;13.438;2022-11-23T07:53:04;1.51;90.31
13091;DHT22;6611;52.604;13.438;2022-11-23T07:58:07;1.54;90.91
13091;DHT22;6611;52.604;13.438;2022-11-23T08:03:12;1.76;90.34
13091;DHT22;6611;52.604;13.438;2022-11-23T08:08:14;1.96;90.28
13091;DHT22;6611;52.604;13.438;2022-11-23T08:13:16;2.14;89.85
13091;DHT22;6611;52.604;13.438;2022-11-23T08:18:20;2.21;89.33
13091;DHT22;6611;52.604;13.438;2022-11-23T08:23:22;2.24;89.07
13091;DHT22;6611;52.604;13.438;2022-11-23T08:28:25;2.18;89.32
13091;DHT22;6611;52.604;13.438;2022-11-23T08:33:28;2.31;89.57
13091;DHT22;6611;52.604;13.438;2022-11-23T08:38:29;2.53;89.15
13091;DHT22;6611;52.604;13.438;2022-11-23T08:43:31;2.60;89.24
13091;DHT22;6611;52.604;13.438;2022-11-23T08:48:35;2.73;88.94
13091;DHT22;6611;52.604;13.438;2022-11-23T08:53:37;2.93;89.00
13091;DHT22;6611;52.604;13.438;2022-11-23T08:58:39;3.11;88.52
13091;DHT22;6611;52.604;13.438;2022-11-23T09:03:43;3.26;88.05
13091;DHT22;6611;52.604;13.438;2022-11-23T09:08:45;3.39;87.77
13091;DHT22;6611;52.604;13.438;2022-11-23T09:13:46;3.62;86.79
13091;DHT22;6611;52.604;13.438;2022-11-23T09:18:54;3.77;85.97
13091;DHT22;6611;52.604;13.438;2022-11-23T09:23:56;3.91;85.50
13091;DHT22;6611;52.604;13.438;2022-11-23T09:28:58;3.90;86.70
13091;DHT22;6611;52.604;13.438;2022-11-23T09:34:01;4.21;85.73
13091;DHT22;6611;52.604;13.438;2022-11-23T09:39:03;4.45;84.75
13091;DHT22;6611;52.604;13.438;2022-11-23T09:44:10;4.42;84.67
13091;DHT22;6611;52.604;13.438;2022-11-23T09:49:19;4.50;84.81
13091;DHT22;6611;52.604;13.438;2022-11-23T09:54:25;4.48;84.03
13091;DHT22;6611;52.604;13.438;2022-11-23T09:59:39;4.38;85.04
13091;DHT22;6611;52.604;13.438;2022-11-23T10:04:43;4.36;85.29
13091;DHT22;6611;52.604;13.438;2022-11-23T10:09:52;4.50;84.93
13091;DHT22;6611;52.604;13.438;2022-11-23T10:15:03;4.52;85.02
13091;DHT22;6611;52.604;13.438;2022-11-23T10:20:20;4.31;85.40
13091;DHT22;6611;52.604;13.438;2022-11-23T10:25:33;4.42;86.41
13091;DHT22;6611;52.604;13.438;2022-11-23T10:30:39;4.46;86.72
13091;DHT22;6611;52.604;13.438;2022-11-23T10:35:42;4.56;87.47
13091;DHT22;6611;52.604;13.438;2022-11-23T10:40:56;4.78;85.41
13091;DHT22;6611;52.604;13.438;2022-11-23T10:46:30;4.88;85.52
13091;DHT22;6611;52.604;13.438;2022-11-23T10:51:33;4.84;84.92
13091;DHT22;6611;52.604;13.438;2022-11-23T10:56:44;4.88;85.62
13091;DHT22;6611;52.604;13.438;2022-11-23T11:01:58;5.08;84.36
13091;DHT22;6611;52.604;13.438;2022-11-23T11:07:21;5.19;84.42
13091;DHT22;6611;52.604;13.438;2022-11-23T11:12:24;5.35;84.28
13091;DHT22;6611;52.604;13.438;2022-11-23T11:17:28;5.50;83.19
13091;DHT22;6611;52.604;13.438;2022-11-23T11:22:35;5.43;84.31
13091;DHT22;6611;52.604;13.438;2022-11-23T11:27:37;5.61;83.70
13091;DHT22;6611;52.604;13.438;2022-11-23T11:32:42;5.73;83.14
13091;DHT22;6611;52.604;13.438;2022-11-23T11:37:49;5.82;82.88
13091;DHT22;6611;52.604;13.438;2022-11-23T11:42:54;5.87;82.62
13091;DHT22;6611;52.604;13.438;2022-11-23T11:48:01;5.87;82.59
13091;DHT22;6611;52.604;13.438;2022-11-23T11:53:09;5.99;82.91
13091;DHT22;6611;52.604;13.438;2022-11-23T11:58:15;6.10;82.44
13091;DHT22;6611;52.604;13.438;2022-11-23T12:03:24;6.19;82.33
13091;DHT22;6611;52.604;13.438;2022-11-23T12:08:36;6.17;82.33
13091;DHT22;6611;52.604;13.438;2022-11-23T12:13:41;6.25;81.44
13091;DHT22;6611;52.604;13.438;2022-11-23T12:19:04;6.22;81.20
13091;DHT22;6611;52.604;13.438;2022-11-23T12:24:13;6.40;81.97
13091;DHT22;6611;52.604;13.438;2022-11-23T12:29:37;6.51;81.69
13091;DHT22;6611;52.604;13.438;2022-11-23T12:35:10;6.63;80.67
13091;DHT22;6611;52.604;13.438;2022-11-23T12:40:33;6.51;80.81
13091;DHT22;6611;52.604;13.438;2022-11-23T12:45:48;6.58;81.79
13091;DHT22;6611;52.604;13.438;2022-11-23T12:50:56;6.60;80.81
13091;DHT22;6611;52.604;13.438;2022-11-23T12:56:06;6.68;80.56
13091;DHT22;6611;52.604;13.438;2022-11-23T13:01:13;6.65;80.88
13091;DHT22;6611;52.604;13.438;2022-11-23T13:06:41;6.60;81.36
13091;DHT22;6611;52.604;13.438;2022-11-23T13:12:03;6.65;81.24
13091;DHT22;6611;52.604;13.438;2022-11-23T13:17:15;6.71;80.60
13091;DHT22;6611;52.604;13.438;2022-11-23T13:22:21;6.63;81.60
13091;DHT22;6611;52.604;13.438;2022-11-23T13:27:41;6.71;81.11
13091;DHT22;6611;52.604;13.438;2022-11-23T13:32:52;6.82;80.08
13091;DHT22;6611;52.604;13.438;2022-11-23T13:38:22;6.84;80.90
13091;DHT22;6611;52.604;13.438;2022-11-23T13:43:28;6.74;80.99
13091;DHT22;6611;52.604;13.438;2022-11-23T13:48:30;6.54;82.02
13091;DHT22;6611;52.604;13.438;2022-11-23T13:53:33;6.54;81.87
13091;DHT22;6611;52.604;13.438;2022-11-23T13:58:38;6.44;82.73
13091;DHT22;6611;52.604;13.438;2022-11-23T14:03:49;6.34;82.39
13091;DHT22;6611;52.604;13.438;2022-11-23T14:08:57;6.37;82.46
13091;DHT22;6611;52.604;13.438;2022-11-23T14:14:02;6.22;83.28
13091;DHT22;6611;52.604;13.438;2022-11-23T14:19:12;6.06;83.29
13091;DHT22;6611;52.604;13.438;2022-11-23T14:24:37;5.95;84.39
13091;DHT22;6611;52.604;13.438;2022-11-23T14:30:02;5.90;84.38
13091;DHT22;6611;52.604;13.438;2022-11-23T14:35:21;5.88;84.12
13091;DHT22;6611;52.604;13.438;2022-11-23T14:40:27;5.73;85.09
13091;DHT22;6611;52.604;13.438;2022-11-23T14:45:32;5.67;84.56
13091;DHT22;6611;52.604;13.438;2022-11-23T14:50:34;5.47;85.04
13091;DHT22;6611;52.604;13.438;2022-11-23T14:55:36;5.25;85.68
13091;DHT22;6611;52.604;13.438;2022-11-23T15:00:41;5.08;86.48
13091;DHT22;6611;52.604;13.438;2022-11-23T15:05:46;4.96;86.49
13091;DHT22;6611;52.604;13.438;2022-11-23T15:10:53;4.66;87.37
13091;DHT22;6611;52.604;13.438;2022-11-23T15:16:02;4.46;87.95
13091;DHT22;6611;52.604;13.438;2022-11-23T15:21:11;4.39;87.84
13091;DHT22;6611;52.604;13.438;2022-11-23T15:26:16;4.19;88.15
13091;DHT22;6611;52.604;13.438;2022-11-23T15:31:26;4.02;88.71
13091;DHT22;6611;52.604;13.438;2022-11-23T15:36:30;3.90;89.07
13091;DHT22;6611;52.604;13.438;2022-11-23T15:41:32;3.81;89.41
13091;DHT22;6611;52.604;13.438;2022-11-23T15:46:36;3.78;89.47
13091;DHT22;6611;52.604;13.438;2022-11-23T15:51:39;3.84;89.11
13091;DHT22;6611;52.604;13.438;2022-11-23T15:56:44;3.90;89.21
13091;DHT22;6611;52.604;13.438;2022-11-23T16:01:49;3.95;89.19
13091;DHT22;6611;52.604;13.438;2022-11-23T16:06:51;3.97;88.95
13091;DHT22;6611;52.604;13.438;2022-11-23T16:11:53;3.98;89.03
13091;DHT22;6611;52.604;13.438;2022-11-23T16:17:03;3.94;89.24
13091;DHT22;6611;52.604;13.438;2022-11-23T16:22:06;4.02;88.84
13091;DHT22;6611;52.604;13.438;2022-11-23T16:27:11;4.04;88.81
13091;DHT22;6611;52.604;13.438;2022-11-23T16:32:22;3.97;88.85
13091;DHT22;6611;52.604;13.438;2022-11-23T16:37:24;3.93;89.17
13091;DHT22;6611;52.604;13.438;2022-11-23T16:42:28;3.93;89.18
13091;DHT22;6611;52.604;13.438;2022-11-23T16:47:31;3.90;88.78
13091;DHT22;6611;52.604;13.438;2022-11-23T16:52:34;3.90;88.91
13091;DHT22;6611;52.604;13.438;2022-11-23T16:57:39;3.78;89.17
13091;DHT22;6611;52.604;13.438;2022-11-23T17:02:42;3.69;88.86
13091;DHT22;6611;52.604;13.438;2022-11-23T17:07:44;3.58;89.02
13091;DHT22;6611;52.604;13.438;2022-11-23T17:12:51;3.43;89.57
13091;DHT22;6611;52.604;13.438;2022-11-23T17:17:55;3.42;89.55
13091;DHT22;6611;52.604;13.438;2022-11-23T17:22:57;3.22;90.07
13091;DHT22;6611;52.604;13.438;2022-11-23T17:28:00;3.19;89.97
13091;DHT22;6611;52.604;13.438;2022-11-23T17:33:03;3.03;90.05
13091;DHT22;6611;52.604;13.438;2022-11-23T17:38:05;2.89;90.32
13091;DHT22;6611;52.604;13.438;2022-11-23T17:43:12;2.83;90.33
13091;DHT22;6611;52.604;13.438;2022-11-23T17:48:15;2.79;90.52
13091;DHT22;6611;52.604;13.438;2022-11-23T17:53:18;2.69;90.62
13091;DHT22;6611;52.604;13.438;2022-11-23T17:58:20;2.60;91.01
13091;DHT22;6611;52.604;13.438;2022-11-23T18:03:23;2.53;91.11
13091;DHT22;6611;52.604;13.438;2022-11-23T18:08:24;2.57;90.60
13091;DHT22;6611;52.604;13.438;2022-11-23T18:13:26;2.53;90.80
13091;DHT22;6611;52.604;13.438;2022-11-23T18:18:29;2.57;90.63
13091;DHT22;6611;52.604;13.438;2022-11-23T18:23:31;2.62;90.53
13091;DHT22;6611;52.604;13.438;2022-11-23T18:28:32;2.56;90.70
13091;DHT22;6611;52.604;13.438;2022-11-23T18:33:36;2.66;90.72
13091;DHT22;6611;52.604;13.438;2022-11-23T18:38:39;2.69;91.05
13091;DHT22;6611;52.604;13.438;2022-11-23T18:43:40;2.64;91.28
13091;DHT22;6611;52.604;13.438;2022-11-23T18:48:44;2.75;91.29
13091;DHT22;6611;52.604;13.438;2022-11-23T18:53:45;2.79;91.12
13091;DHT22;6611;52.604;13.438;2022-11-23T18:58:49;2.63;91.15
13091;DHT22;6611;52.604;13.438;2022-11-23T19:03:52;2.56;91.58
13091;DHT22;6611;52.604;13.438;2022-11-23T19:08:54;2.53;91.73
13091;DHT22;6611;52.604;13.438;2022-11-23T19:13:57;2.62;91.49
13091;DHT22;6611;52.604;13.438;2022-11-23T19:19:03;2.63;91.29
13091;DHT22;6611;52.604;13.438;2022-11-23T19:24:05;2.70;90.98
13091;DHT22;6611;52.604;13.438;2022-11-23T19:29:07;2.64;90.75
13091;DHT22;6611;52.604;13.438;2022-11-23T19:34:10;2.49;91.58
13091;DHT22;6611;52.604;13.438;2022-11-23T19:39:12;2.50;91.57
13091;DHT22;6611;52.604;13.438;2022-11-23T19:44:14;2.52;91.85
13091;DHT22;6611;52.604;13.438;2022-11-23T19:49:17;2.59;91.49
13091;DHT22;6611;52.604;13.438;2022-11-23T19:54:18;2.53;91.56
13091;DHT22;6611;52.604;13.438;2022-11-23T19:59:20;2.50;91.06
13091;DHT22;6611;52.604;13.438;2022-11-23T20:04:23;2.50;91.21
13091;DHT22;6611;52.604;13.438;2022-11-23T20:09:25;2.57;91.03
13091;DHT22;6611;52.604;13.438;2022-11-23T20:14:27;2.50;90.95
13091;DHT22;6611;52.604;13.438;2022-11-23T20:19:30;2.57;90.83
13091;DHT22;6611;52.604;13.438;2022-11-23T20:24:31;2.46;91.14
13091;DHT22;6611;52.604;13.438;2022-11-23T20:29:34;2.42;91.52
13091;DHT22;6611;52.604;13.438;2022-11-23T20:34:37;2.45;91.66
13091;DHT22;6611;52.604;13.438;2022-11-23T20:39:39;2.52;91.50
13091;DHT22;6611;52.604;13.438;2022-11-23T20:44:41;2.49;91.23
13091;DHT22;6611;52.604;13.438;2022-11-23T20:49:44;2.52;91.07
13091;DHT22;6611;52.604;13.438;2022-11-23T20:54:45;2.48;91.35
13091;DHT22;6611;52.604;13.438;2022-11-23T20:59:47;2.45;91.37
13091;DHT22;6611;52.604;13.438;2022-11-23T21:04:50;2.32;91.72
13091;DHT22;6611;52.604;13.438;2022-11-23T21:09:52;2.38;91.53
13091;DHT22;6611;52.604;13.438;2022-11-23T21:14:55;2.35;91.73
13091;DHT22;6611;52.604;13.438;2022-11-23T21:19:58;2.31;91.59
13091;DHT22;6611;52.604;13.438;2022-11-23T21:25:00;2.34;91.37
13091;DHT22;6611;52.604;13.438;2022-11-23T21:30:02;2.41;91.18
13091;DHT22;6611;52.604;13.438;2022-11-23T21:35:07;2.35;91.23
13091;DHT22;6611;52.604;13.438;2022-11-23T21:40:10;2.27;90.60
13091;DHT22;6611;52.604;13.438;2022-11-23T21:45:12;2.07;90.19
13091;DHT22;6611;52.604;13.438;2022-11-23T21:50:15;2.06;90.85
13091;DHT22;6611;52.604;13.438;2022-11-23T21:55:17;2.09;90.52
13091;DHT22;6611;52.604;13.438;2022-11-23T22:00:19;1.92;89.11
13091;DHT22;6611;52.604;13.438;2022-11-23T22:05:24;1.79;89.88
13091;DHT22;6611;52.604;13.438;2022-11-23T22:10:26;1.75;90.74
13091;DHT22;6611;52.604;13.438;2022-11-23T22:15:27;1.73;90.80
13091;DHT22;6611;52.604;13.438;2022-11-23T22:20:33;1.83;91.36
13091;DHT22;6611;52.604;13.438;2022-11-23T22:25:35;1.87;91.95
13091;DHT22;6611;52.604;13.438;2022-11-23T22:30:36;2.00;91.72
13091;DHT22;6611;52.604;13.438;2022-11-23T22:35:39;2.15;91.52
13091;DHT22;6611;52.604;13.438;2022-11-23T22:40:44;2.28;91.36
13091;DHT22;6611;52.604;13.438;2022-11-23T22:45:45;2.32;91.34
13091;DHT22;6611;52.604;13.438;2022-11-23T22:50:55;2.36;91.53
13091;DHT22;6611;52.604;13.438;2022-11-23T22:56:02;2.42;91.70
13091;DHT22;6611;52.604;13.438;2022-11-23T23:01:05;2.49;91.63
13091;DHT22;6611;52.604;13.438;2022-11-23T23:06:13;2.44;92.07
13091;DHT22;6611;52.604;13.438;2022-11-23T23:11:15;2.36;92.52
13091;DHT22;6611;52.604;13.438;2022-11-23T23:16:17;2.38;92.56
13091;DHT22;6611;52.604;13.438;2022-11-23T23:21:21;2.39;92.61
13091;DHT22;6611;52.604;13.438;2022-11-23T23:26:24;2.25;93.16
13091;DHT22;6611;52.604;13.438;2022-11-23T23:31:27;2.36;93.03
13091;DHT22;6611;52.604;13.438;2022-11-23T23:36:30;2.41;92.89
13091;DHT22;6611;52.604;13.438;2022-11-23T23:41:32;2.32;93.34
13091;DHT22;6611;52.604;13.438;2022-11-23T23:46:34;2.45;93.33
13091;DHT22;6611;52.604;13.438;2022-11-23T23:51:37;2.55;93.05
13091;DHT22;6611;52.604;13.438;2022-11-23T23:56:38;2.55;93.34
